Time;durP1;ratioP1;P1;durP2;ratioP2;P2;SDS_P1;SDS_P2;PMS_P1;PMS_P2;Temp;Humidity;BMP_temperature;BMP_pressure;BME280_temperature;BME280_humidity;BME280_pressure;Samples;Min_cycle;Max_cycle;Signal;HPM_P1;HPM_P2
2021/11/25 08:27:06;;;;;;;12.20;10.40;;;;;;;;;;5643810;23;20567;-80
2021/11/25 08:29:31;;;;;;;10.43;8.10;;;;;;;;;;4881615;29;20112;-81
2021/11/25 08:31:57;;;;;;;11.15;8.02;;;;;;;;;;4881431;29;20472;-81
2021/11/25 08:34:23;;;;;;;10.27;7.63;;;;;;;;;;4881505;29;20036;-80
2021/11/25 08:36:49;;;;;;;12.95;8.05;;;;;;;;;;4881362;29;20029;-81
2021/11/25 08:39:14;;;;;;;12.60;7.13;;;;;;;;;;4881393;29;20081;-81
2021/11/25 08:41:40;;;;;;;9.27;6.22;;;;;;;;;;4864609;29;20480;-80
2021/11/25 08:44:05;;;;;;;12.07;6.20;;;;;;;;;;4864574;29;20029;-82
2021/11/25 08:46:31;;;;;;;12.05;6.80;;;;;;;;;;4881340;29;20088;-82
2021/11/25 09:42:16;;;;;;;9.02;6.45;;;;;;;;;;4873095;29;20060;-77
2021/11/25 09:44:42;;;;;;;10.32;8.20;;;;;;;;;;4861621;29;20034;-77
2021/11/25 09:47:08;;;;;;;11.07;8.00;;;;;;;;;;4861677;29;20387;-76
2021/11/25 09:49:33;;;;;;;9.00;7.22;;;;;;;;;;4848264;29;20096;-75
2021/11/25 09:51:59;;;;;;;12.48;7.55;;;;;;;;;;4843104;29;20451;-76
2021/11/25 09:54:25;;;;;;;11.30;6.63;;;;;;;;;;4843235;29;20034;-80
2021/11/25 09:56:52;;;;;;;9.45;6.82;;;;;;;;;;4842959;29;20034;-79
2021/11/25 09:59:18;;;;;;;7.30;6.13;;;;;;;;;;4843095;29;20034;-78
2021/11/25 10:01:44;;;;;;;11.95;7.57;;;;;;;;;;4842970;29;20072;-79
2021/11/25 10:04:10;;;;;;;9.73;6.20;;;;;;;;;;4842765;29;20036;-79
2021/11/25 10:06:52;;;;;;;13.90;7.50;;;;;;;;;;4842832;29;20030;-81
2021/11/25 10:09:29;;;;;;;11.48;6.68;;;;;;;;;;4842719;29;20034;-78
2021/11/25 10:11:55;;;;;;;9.82;5.70;;;;;;;;;;4841583;29;20037;-81
2021/11/25 10:14:20;;;;;;;6.60;4.68;;;;;;;;;;4842973;29;20385;-81
2021/11/25 10:16:50;;;;;;;6.78;4.97;;;;;;;;;;4841611;29;20038;-81
2021/11/25 10:19:19;;;;;;;8.13;4.53;;;;;;;;;;4843185;29;20077;-83
2021/11/25 10:21:52;;;;;;;6.55;5.40;;;;;;;;;;4843175;29;20513;-81
2021/11/25 10:24:33;;;;;;;9.00;6.00;;;;;;;;;;4843203;29;20045;-83
2021/11/25 10:27:19;;;;;;;8.77;5.53;;;;;;;;;;4844634;29;20066;-78
2021/11/25 10:29:47;;;;;;;9.27;6.28;;;;;;;;;;4846559;29;20162;-80
2021/11/25 10:32:21;;;;;;;8.80;5.65;;;;;;;;;;4846579;29;20034;-77
2021/11/25 10:40:27;;;;;;;9.10;5.63;;;;;;;;;;4831754;29;20057;-79
2021/11/25 10:42:52;;;;;;;11.07;6.40;;;;;;;;;;4853718;29;20049;-79
2021/11/25 10:45:19;;;;;;;8.95;5.88;;;;;;;;;;4864598;29;20488;-79
2021/11/25 10:47:56;;;;;;;10.60;6.30;;;;;;;;;;4864529;29;20025;-78
2021/11/25 10:50:22;;;;;;;11.82;6.90;;;;;;;;;;4864572;29;20401;-79
2021/11/25 10:52:49;;;;;;;12.65;6.75;;;;;;;;;;4864658;29;20032;-77
2021/11/25 10:55:14;;;;;;;8.13;6.20;;;;;;;;;;4864335;29;20373;-78
2021/11/25 10:57:46;;;;;;;10.77;6.28;;;;;;;;;;4864363;29;20040;-77
2021/11/25 11:00:14;;;;;;;7.30;5.70;;;;;;;;;;4864449;29;20048;-83
2021/11/25 11:02:41;;;;;;;10.73;6.28;;;;;;;;;;4864221;29;20443;-77
2021/11/25 11:05:11;;;;;;;10.05;6.53;;;;;;;;;;4864390;29;20036;-78
2021/11/25 11:07:44;;;;;;;9.45;6.18;;;;;;;;;;4864224;29;20030;-77
2021/11/25 11:10:24;;;;;;;9.00;6.05;;;;;;;;;;4864365;29;20116;-76
2021/11/25 11:15:54;;;;;;;9.60;6.70;;;;;;;;;;4864404;29;20109;-83
2021/11/25 11:18:56;;;;;;;9.23;5.82;;;;;;;;;;4863961;29;20104;-77
2021/11/25 11:21:49;;;;;;;9.68;6.05;;;;;;;;;;4863930;29;20033;-77
2021/11/25 11:24:24;;;;;;;7.00;5.80;;;;;;;;;;4847452;29;20068;-78
2021/11/25 11:26:58;;;;;;;10.65;6.75;;;;;;;;;;4863177;29;20029;-81
2021/11/25 11:29:26;;;;;;;9.35;6.00;;;;;;;;;;4863276;29;20029;-76
2021/11/25 11:31:56;;;;;;;7.30;6.00;;;;;;;;;;4864045;29;20129;-75
2021/11/25 11:34:23;;;;;;;7.20;5.80;;;;;;;;;;4864078;29;20086;-78
2021/11/25 11:36:52;;;;;;;8.95;6.20;;;;;;;;;;4863925;29;20044;-75
2021/11/25 11:39:20;;;;;;;11.18;6.55;;;;;;;;;;4862778;29;20033;-75
2021/11/25 11:41:52;;;;;;;9.23;5.55;;;;;;;;;;4847028;29;20081;-75
2021/11/25 11:44:23;;;;;;;7.50;5.28;;;;;;;;;;4863754;29;20041;-77
2021/11/25 11:46:51;;;;;;;7.85;4.97;;;;;;;;;;4863743;29;20025;-78
2021/11/25 11:49:21;;;;;;;7.90;5.00;;;;;;;;;;4863409;29;20029;-78
2021/11/25 11:55:09;;;;;;;8.38;5.00;;;;;;;;;;4863764;29;20527;-77
2021/11/25 11:57:41;;;;;;;7.38;5.03;;;;;;;;;;4863538;29;20116;-84
2021/11/25 12:00:26;;;;;;;7.25;5.82;;;;;;;;;;4863326;29;20028;-81
2021/11/25 12:02:58;;;;;;;7.65;5.10;;;;;;;;;;4862743;29;20081;-83
2021/11/25 12:05:43;;;;;;;7.45;4.70;;;;;;;;;;4863462;29;20097;-77
2021/11/25 12:08:23;;;;;;;8.15;5.40;;;;;;;;;;4863372;29;20528;-78
2021/11/25 12:10:54;;;;;;;6.72;5.13;;;;;;;;;;4846369;29;20438;-77
2021/11/25 12:13:20;;;;;;;6.82;5.13;;;;;;;;;;4863006;29;20032;-76
2021/11/25 12:15:46;;;;;;;8.07;5.40;;;;;;;;;;4862886;29;20035;-77
2021/11/25 12:18:41;;;;;;;5.80;4.80;;;;;;;;;;4863093;29;20038;-77
2021/11/25 12:21:06;;;;;;;8.43;5.47;;;;;;;;;;4854712;29;20090;-77
2021/11/25 12:23:38;;;;;;;8.52;5.65;;;;;;;;;;4862962;29;20410;-77
2021/11/25 12:26:05;;;;;;;7.90;6.13;;;;;;;;;;4862652;29;20053;-77
2021/11/25 12:28:39;;;;;;;7.38;5.75;;;;;;;;;;4862742;29;20022;-78
2021/11/25 12:31:33;;;;;;;10.40;6.03;;;;;;;;;;4862832;29;20108;-79
2021/11/25 12:33:53;;;;;;;10.20;6.00;;;;;;;;;;4862013;29;20026;-76
2021/11/25 12:36:37;;;;;;;10.27;6.20;;;;;;;;;;4862660;29;20033;-76
2021/11/25 12:39:05;;;;;;;7.75;5.13;;;;;;;;;;4862630;29;20033;-77
2021/11/25 12:41:34;;;;;;;6.15;4.20;;;;;;;;;;4861852;29;20042;-75
2021/11/25 12:44:00;;;;;;;7.20;4.85;;;;;;;;;;4861965;29;20145;-76
2021/11/25 17:37:58;;;;;;;6.75;5.25;;;;;;;;;;4842052;27;20424;-75
2021/11/25 17:40:23;;;;;;;6.32;5.20;;;;;;;;;;4880205;29;20037;-75
2021/11/25 17:42:53;;;;;;;6.05;5.45;;;;;;;;;;4880293;29;20028;-74
2021/11/25 17:45:19;;;;;;;;;;;;;;;;;;4867533;29;20037;-75
2021/11/25 17:47:44;;;;;;;6.00;4.57;;;;;;;;;;4844883;29;19916;-74
2021/11/25 17:50:10;;;;;;;6.68;4.78;;;;;;;;;;4861533;29;20038;-75
2021/11/25 17:52:36;;;;;;;6.32;4.65;;;;;;;;;;4861504;29;20030;-75
2021/11/25 17:55:03;;;;;;;7.55;4.45;;;;;;;;;;4861261;29;20090;-74
2021/11/25 17:57:29;;;;;;;6.07;4.30;;;;;;;;;;4861434;29;20029;-75
2021/11/25 17:59:55;;;;;;;7.15;4.78;;;;;;;;;;4861564;29;20392;-76
2021/11/25 18:02:21;;;;;;;7.57;4.72;;;;;;;;;;4861818;29;20104;-74
2021/11/25 18:04:47;;;;;;;6.63;5.13;;;;;;;;;;4861119;29;20101;-77
2021/11/25 18:07:13;;;;;;;6.75;4.30;;;;;;;;;;4861554;29;20109;-75
2021/11/25 18:09:38;;;;;;;7.35;5.35;;;;;;;;;;4861380;29;20112;-77
2021/11/25 18:12:06;;;;;;;9.90;7.32;;;;;;;;;;4861355;29;20026;-76
2021/11/25 18:14:32;;;;;;;11.48;7.20;;;;;;;;;;4863181;29;20029;-76
2021/11/25 18:16:58;;;;;;;7.80;5.35;;;;;;;;;;4879629;29;20029;-76
2021/11/25 18:19:23;;;;;;;7.72;5.60;;;;;;;;;;4879772;29;20069;-75
2021/11/25 18:21:49;;;;;;;8.07;7.00;;;;;;;;;;4879644;29;20029;-76
2021/11/25 18:24:14;;;;;;;10.85;8.63;;;;;;;;;;4879751;29;20500;-77
2021/11/25 18:26:40;;;;;;;12.88;10.23;;;;;;;;;;4879671;29;20370;-76
2021/11/25 18:29:06;;;;;;;8.18;5.05;;;;;;;;;;4879647;29;20033;-77
2021/11/25 18:31:31;;;;;;;6.38;4.38;;;;;;;;;;4879443;29;20141;-77
2021/11/25 18:33:57;;;;;;;6.43;5.40;;;;;;;;;;4879952;29;20116;-77
2021/11/25 18:36:25;;;;;;;7.30;5.20;;;;;;;;;;4879620;29;20389;-76
2021/11/25 18:38:53;;;;;;;7.00;5.22;;;;;;;;;;4879583;29;20620;-76
2021/11/25 18:41:19;;;;;;;7.63;5.40;;;;;;;;;;4879769;29;20047;-77
2021/11/25 18:43:45;;;;;;;8.50;5.70;;;;;;;;;;4858613;29;20104;-77
2021/11/25 18:46:11;;;;;;;9.70;5.28;;;;;;;;;;4860417;29;20029;-76
2021/11/25 18:48:42;;;;;;;5.22;4.63;;;;;;;;;;4861104;29;20021;-77
2021/11/25 18:51:09;;;;;;;6.57;4.72;;;;;;;;;;4864211;29;20033;-77
2021/11/25 18:53:34;;;;;;;6.78;5.00;;;;;;;;;;4864327;29;20029;-76
2021/11/25 18:56:00;;;;;;;6.22;4.97;;;;;;;;;;4863736;29;20030;-76
2021/11/25 18:58:26;;;;;;;6.82;5.03;;;;;;;;;;4864609;29;20475;-76
2021/11/25 19:00:53;;;;;;;6.25;4.85;;;;;;;;;;4864465;29;20022;-75
2021/11/25 19:03:19;;;;;;;6.05;4.60;;;;;;;;;;4864557;29;20434;-75
2021/11/25 19:05:46;;;;;;;6.85;4.95;;;;;;;;;;4864279;29;20434;-76
2021/11/25 19:08:12;;;;;;;7.45;5.13;;;;;;;;;;4864385;29;20108;-78
2021/11/25 19:10:37;;;;;;;6.80;4.88;;;;;;;;;;4864517;29;20061;-78
2021/11/25 19:13:03;;;;;;;6.95;4.93;;;;;;;;;;4864377;29;20080;-79
2021/11/25 19:15:31;;;;;;;7.00;5.45;;;;;;;;;;4864119;29;20082;-79
2021/11/25 19:17:57;;;;;;;7.10;5.32;;;;;;;;;;4864040;29;20058;-76
2021/11/25 19:20:23;;;;;;;6.85;5.53;;;;;;;;;;4864216;29;20036;-76
2021/11/25 19:22:49;;;;;;;9.07;5.38;;;;;;;;;;4864364;29;20030;-75
2021/11/25 19:25:14;;;;;;;7.75;5.30;;;;;;;;;;4863919;29;20082;-75
2021/11/25 19:27:41;;;;;;;6.75;5.68;;;;;;;;;;4864171;29;20025;-76
2021/11/25 19:30:10;;;;;;;8.43;5.90;;;;;;;;;;4863931;29;20029;-75
2021/11/25 19:32:36;;;;;;;6.57;5.55;;;;;;;;;;4864296;29;20029;-77
2021/11/25 19:35:09;;;;;;;7.63;5.70;;;;;;;;;;4863922;29;20040;-77
2021/11/25 19:37:34;;;;;;;6.97;5.78;;;;;;;;;;4863053;29;20026;-77
2021/11/25 19:40:02;;;;;;;6.97;5.68;;;;;;;;;;4862279;29;20113;-77
2021/11/25 19:42:28;;;;;;;7.40;5.72;;;;;;;;;;4862831;29;20101;-76
2021/11/25 19:44:54;;;;;;;7.03;5.97;;;;;;;;;;4863030;29;20426;-76
2021/11/25 19:47:20;;;;;;;7.30;5.88;;;;;;;;;;4863151;29;20044;-77
2021/11/25 19:49:45;;;;;;;8.25;5.95;;;;;;;;;;4863235;29;20029;-75
2021/11/25 19:52:11;;;;;;;8.43;6.20;;;;;;;;;;4862874;29;20029;-77
2021/11/25 19:54:36;;;;;;;8.23;6.30;;;;;;;;;;4862889;29;20055;-76
2021/11/25 19:57:03;;;;;;;7.55;5.68;;;;;;;;;;4863045;29;20045;-77
2021/11/25 19:59:29;;;;;;;6.82;5.97;;;;;;;;;;4862782;29;20035;-77
2021/11/25 20:01:56;;;;;;;7.85;5.97;;;;;;;;;;4863541;29;20112;-76
2021/11/25 20:04:22;;;;;;;7.20;5.65;;;;;;;;;;4863318;29;20073;-77
2021/11/25 20:06:47;;;;;;;6.03;4.97;;;;;;;;;;4846919;29;20045;-77
2021/11/25 20:09:13;;;;;;;8.65;5.90;;;;;;;;;;4863119;29;20029;-78
2021/11/25 20:11:39;;;;;;;6.88;5.20;;;;;;;;;;4863293;29;20033;-78
2021/11/25 20:14:04;;;;;;;7.43;5.10;;;;;;;;;;4863487;29;20033;-77
2021/11/25 20:16:32;;;;;;;9.75;6.30;;;;;;;;;;4863385;29;20029;-78
2021/11/25 20:18:58;;;;;;;6.45;4.50;;;;;;;;;;4863229;29;20026;-77
2021/11/25 20:21:24;;;;;;;6.65;5.78;;;;;;;;;;4863317;29;20077;-76
2021/11/25 20:23:49;;;;;;;11.98;7.13;;;;;;;;;;4863125;29;20040;-77
2021/11/25 20:26:16;;;;;;;11.25;7.60;;;;;;;;;;4863310;29;20377;-76
2021/11/25 20:28:41;;;;;;;16.52;9.60;;;;;;;;;;4862785;29;20040;-76
2021/11/25 20:31:08;;;;;;;10.75;7.47;;;;;;;;;;4863074;29;20045;-76
2021/11/25 20:33:33;;;;;;;10.63;7.18;;;;;;;;;;4863008;29;20090;-76
2021/11/25 20:36:00;;;;;;;12.25;8.15;;;;;;;;;;4862549;29;20042;-78
2021/11/25 20:38:26;;;;;;;10.65;8.43;;;;;;;;;;4862327;29;20121;-77
2021/11/25 20:40:51;;;;;;;11.00;8.25;;;;;;;;;;4862699;29;20117;-80
2021/11/25 20:43:17;;;;;;;9.45;7.57;;;;;;;;;;4862624;29;20057;-78
2021/11/25 20:45:43;;;;;;;9.80;7.30;;;;;;;;;;4862728;29;20116;-79
2021/11/25 20:48:08;;;;;;;9.85;7.47;;;;;;;;;;4862514;29;20537;-75
2021/11/25 20:50:34;;;;;;;9.98;7.53;;;;;;;;;;4862816;29;20025;-79
2021/11/25 20:53:00;;;;;;;9.02;6.90;;;;;;;;;;4845760;29;20033;-79
2021/11/25 20:55:27;;;;;;;9.85;6.63;;;;;;;;;;4862120;29;20049;-80
2021/11/25 20:57:52;;;;;;;10.25;6.78;;;;;;;;;;4862511;29;20057;-79
2021/11/25 21:00:19;;;;;;;10.43;7.13;;;;;;;;;;4862449;29;20512;-80
2021/11/25 21:02:45;;;;;;;9.52;6.90;;;;;;;;;;4862308;29;20026;-78
2021/11/25 21:05:11;;;;;;;9.52;6.20;;;;;;;;;;4862316;29;20453;-78
2021/11/25 21:07:37;;;;;;;7.90;6.10;;;;;;;;;;4862265;29;20040;-78
2021/11/25 21:10:09;;;;;;;21.05;13.50;;;;;;;;;;4845469;29;20052;-77
2021/11/25 21:12:37;;;;;;;15.68;10.93;;;;;;;;;;4861724;29;20033;-80
2021/11/25 21:15:04;;;;;;;11.10;8.32;;;;;;;;;;4861693;29;20113;-76
2021/11/25 21:17:30;;;;;;;10.35;7.50;;;;;;;;;;4861973;29;20154;-77
2021/11/25 21:19:56;;;;;;;9.73;7.03;;;;;;;;;;4861796;29;20066;-76
2021/11/25 21:22:21;;;;;;;5.97;5.20;;;;;;;;;;4861964;29;20113;-76
2021/11/25 21:24:47;;;;;;;5.65;4.68;;;;;;;;;;4861810;29;20166;-76
2021/11/25 21:27:13;;;;;;;8.40;5.72;;;;;;;;;;4845400;29;20469;-78
2021/11/25 21:29:39;;;;;;;6.63;4.95;;;;;;;;;;4861876;29;20040;-76
2021/11/25 21:32:06;;;;;;;5.35;4.55;;;;;;;;;;4861825;29;20036;-76
2021/11/25 21:34:31;;;;;;;5.80;5.07;;;;;;;;;;4860668;29;20022;-76
2021/11/25 21:36:57;;;;;;;5.78;5.07;;;;;;;;;;4859928;29;20029;-76
2021/11/25 21:39:26;;;;;;;6.75;5.30;;;;;;;;;;4842896;29;20049;-76
2021/11/25 21:41:51;;;;;;;14.75;5.53;;;;;;;;;;4860886;29;20045;-76
2021/11/25 21:44:17;;;;;;;6.18;4.72;;;;;;;;;;4855886;29;20121;-76
2021/11/25 21:46:44;;;;;;;6.85;5.35;;;;;;;;;;4842953;29;20038;-76
2021/11/25 21:49:09;;;;;;;6.18;4.63;;;;;;;;;;4843072;29;20030;-76
2021/11/25 21:51:35;;;;;;;7.20;5.35;;;;;;;;;;4842916;29;20022;-76
2021/11/25 21:54:02;;;;;;;12.57;7.72;;;;;;;;;;4856801;29;20381;-76
2021/11/25 21:56:30;;;;;;;8.57;6.00;;;;;;;;;;4861468;29;20037;-76
2021/11/25 21:58:56;;;;;;;5.93;5.32;;;;;;;;;;4861237;29;20040;-76
2021/11/25 22:01:22;;;;;;;6.63;5.63;;;;;;;;;;4861446;29;20473;-75
2021/11/25 22:03:47;;;;;;;6.85;4.53;;;;;;;;;;4860924;29;20029;-81
2021/11/25 22:06:15;;;;;;;6.68;5.70;;;;;;;;;;4861241;29;20508;-79
2021/11/25 22:08:40;;;;;;;6.80;5.88;;;;;;;;;;4861368;29;20029;-80
2021/11/25 22:11:06;;;;;;;6.55;5.13;;;;;;;;;;4861310;29;20030;-77
2021/11/25 22:13:33;;;;;;;5.65;4.90;;;;;;;;;;4861417;29;20059;-77
2021/11/25 22:16:02;;;;;;;6.63;5.35;;;;;;;;;;4861104;29;20040;-78
2021/11/25 22:18:28;;;;;;;6.88;4.82;;;;;;;;;;4861007;29;20113;-76
2021/11/25 22:21:05;;;;;;;6.13;4.88;;;;;;;;;;4861386;29;20471;-79
2021/11/25 22:26:14;;;;;;;5.53;4.13;;;;;;;;;;4867343;29;20044;-83
2021/11/25 22:28:39;;;;;;;6.63;4.40;;;;;;;;;;4867393;29;20026;-75
2021/11/25 22:31:05;;;;;;;5.75;4.57;;;;;;;;;;4867492;29;20462;-78
2021/11/25 22:33:30;;;;;;;5.88;3.97;;;;;;;;;;4850551;29;20033;-77
2021/11/25 22:35:56;;;;;;;7.68;4.57;;;;;;;;;;4867170;29;20089;-78
2021/11/25 22:38:21;;;;;;;6.72;4.57;;;;;;;;;;4867042;29;20129;-78
2021/11/25 22:40:47;;;;;;;5.68;4.20;;;;;;;;;;4867274;29;20398;-77
2021/11/25 22:43:12;;;;;;;5.07;4.10;;;;;;;;;;4867447;29;20040;-78
2021/11/25 22:45:38;;;;;;;7.00;5.13;;;;;;;;;;4866507;29;20037;-78
2021/11/25 22:48:05;;;;;;;6.32;4.75;;;;;;;;;;4867149;29;20481;-78
2021/11/25 22:50:30;;;;;;;5.50;3.92;;;;;;;;;;4867156;29;20045;-77
2021/11/25 22:52:56;;;;;;;5.32;3.80;;;;;;;;;;4867091;29;20025;-78
2021/11/25 22:55:22;;;;;;;5.03;3.92;;;;;;;;;;4867270;29;20112;-77
2021/11/25 22:57:47;;;;;;;5.70;3.78;;;;;;;;;;4850548;29;20034;-81
2021/11/25 23:00:17;;;;;;;5.25;3.85;;;;;;;;;;4867255;29;20113;-79
2021/11/25 23:02:43;;;;;;;5.18;4.18;;;;;;;;;;4867128;29;20121;-79
2021/11/25 23:05:09;;;;;;;5.10;4.35;;;;;;;;;;4850386;29;20505;-80
2021/11/25 23:07:34;;;;;;;6.97;4.80;;;;;;;;;;4867388;29;20037;-78
2021/11/25 23:10:00;;;;;;;6.43;4.63;;;;;;;;;;4867185;29;20029;-78
2021/11/25 23:12:27;;;;;;;5.43;4.18;;;;;;;;;;4866525;29;20038;-78
2021/11/25 23:14:52;;;;;;;8.02;5.20;;;;;;;;;;4850164;29;20444;-77
2021/11/25 23:17:18;;;;;;;7.82;4.68;;;;;;;;;;4867183;29;20124;-77
2021/11/25 23:19:44;;;;;;;6.53;5.45;;;;;;;;;;4866725;29;20033;-79
2021/11/25 23:22:11;;;;;;;5.65;4.72;;;;;;;;;;4866990;29;20036;-78
2021/11/25 23:24:37;;;;;;;6.03;4.82;;;;;;;;;;4867014;29;20026;-78
2021/11/25 23:27:03;;;;;;;6.97;5.28;;;;;;;;;;4867031;29;20468;-78
